sensor_id;sensor_type;location;lat;lon;timestamp;temperature;humidity
46123;DHT22;31856;-35.404;149.120;2024-03-02T00:30:00;23.70;60.90
46123;DHT22;31856;-35.404;149.120;2024-03-02T00:32:35;23.70;59.90
46123;DHT22;31856;-35.404;149.120;2024-03-02T00:35:05;23.80;59.10
46123;DHT22;31856;-35.404;149.120;2024-03-02T00:37:34;23.80;58.70
46123;DHT22;31856;-35.404;149.120;2024-03-02T00:40:04;23.90;59.50
46123;DHT22;31856;-35.404;149.120;2024-03-02T00:42:35;24.00;58.30
46123;DHT22;31856;-35.404;149.120;2024-03-02T00:45:07;24.00;58.20
46123;DHT22;31856;-35.404;149.120;2024-03-02T00:47:38;24.10;58.40
46123;DHT22;31856;-35.404;149.120;2024-03-02T00:50:09;24.20;58.10
46123;DHT22;31856;-35.404;149.120;2024-03-02T00:52:52;24.20;57.70
46123;DHT22;31856;-35.404;149.120;2024-03-02T00:55:23;24.30;57.70
46123;DHT22;31856;-35.404;149.120;2024-03-02T00:57:52;24.30;57.30
46123;DHT22;31856;-35.404;149.120;2024-03-02T01:00:22;24.40;57.60
46123;DHT22;31856;-35.404;149.120;2024-03-02T01:02:51;24.40;57.30
46123;DHT22;31856;-35.404;149.120;2024-03-02T01:05:21;24.50;57.30
46123;DHT22;31856;-35.404;149.120;2024-03-02T01:07:51;24.50;56.00
46123;DHT22;31856;-35.404;149.120;2024-03-02T01:10:20;24.50;56.00
46123;DHT22;31856;-35.404;149.120;2024-03-02T01:12:50;24.60;55.90
46123;DHT22;31856;-35.404;149.120;2024-03-02T01:15:20;24.70;56.00
46123;DHT22;31856;-35.404;149.120;2024-03-02T01:17:50;24.80;55.50
46123;DHT22;31856;-35.404;149.120;2024-03-02T01:20:22;24.80;54.40
46123;DHT22;31856;-35.404;149.120;2024-03-02T01:22:51;24.90;54.10
46123;DHT22;31856;-35.404;149.120;2024-03-02T01:25:21;25.00;53.40
46123;DHT22;31856;-35.404;149.120;2024-03-02T01:27:50;25.10;53.00
46123;DHT22;31856;-35.404;149.120;2024-03-02T01:30:20;25.20;52.60
46123;DHT22;31856;-35.404;149.120;2024-03-02T01:32:50;25.30;51.80
46123;DHT22;31856;-35.404;149.120;2024-03-02T01:35:20;25.40;51.00
46123;DHT22;31856;-35.404;149.120;2024-03-02T01:37:51;25.50;49.90
46123;DHT22;31856;-35.404;149.120;2024-03-02T01:40:21;25.60;49.30
46123;DHT22;31856;-35.404;149.120;2024-03-02T01:42:51;25.70;49.00
46123;DHT22;31856;-35.404;149.120;2024-03-02T01:45:20;25.70;48.40
46123;DHT22;31856;-35.404;149.120;2024-03-02T01:47:51;25.80;47.60
46123;DHT22;31856;-35.404;149.120;2024-03-02T01:50:27;25.80;47.70
46123;DHT22;31856;-35.404;149.120;2024-03-02T01:52:57;25.80;45.90
46123;DHT22;31856;-35.404;149.120;2024-03-02T01:55:27;25.80;46.10
46123;DHT22;31856;-35.404;149.120;2024-03-02T01:57:58;25.80;44.20
46123;DHT22;31856;-35.404;149.120;2024-03-02T02:00:28;25.80;43.90
46123;DHT22;31856;-35.404;149.120;2024-03-02T02:02:58;25.90;43.90
46123;DHT22;31856;-35.404;149.120;2024-03-02T02:05:28;26.00;44.50
46123;DHT22;31856;-35.404;149.120;2024-03-02T02:07:58;26.00;42.10
46123;DHT22;31856;-35.404;149.120;2024-03-02T02:10:27;26.00;43.50
46123;DHT22;31856;-35.404;149.120;2024-03-02T02:12:57;26.10;43.80
46123;DHT22;31856;-35.404;149.120;2024-03-02T02:15:28;26.20;43.80
46123;DHT22;31856;-35.404;149.120;2024-03-02T02:17:59;26.20;42.00
46123;DHT22;31856;-35.404;149.120;2024-03-02T02:20:28;26.30;41.60
46123;DHT22;31856;-35.404;149.120;2024-03-02T02:23:02;26.40;42.20
46123;DHT22;31856;-35.404;149.120;2024-03-02T02:27:57;26.60;42.60
46123;DHT22;31856;-35.404;149.120;2024-03-02T02:30:27;26.70;43.30
46123;DHT22;31856;-35.404;149.120;2024-03-02T02:32:58;26.70;43.10
46123;DHT22;31856;-35.404;149.120;2024-03-02T02:35:27;26.90;43.00
46123;DHT22;31856;-35.404;149.120;2024-03-02T02:37:58;26.80;41.40
46123;DHT22;31856;-35.404;149.120;2024-03-02T02:40:28;26.90;40.90
46123;DHT22;31856;-35.404;149.120;2024-03-02T02:43:00;26.90;41.30
46123;DHT22;31856;-35.404;149.120;2024-03-02T02:45:29;27.00;40.30
46123;DHT22;31856;-35.404;149.120;2024-03-02T02:47:59;27.00;39.40
46123;DHT22;31856;-35.404;149.120;2024-03-02T02:50:31;27.10;40.10
46123;DHT22;31856;-35.404;149.120;2024-03-02T02:53:00;27.20;39.30
46123;DHT22;31856;-35.404;149.120;2024-03-02T02:55:30;27.20;38.30
46123;DHT22;31856;-35.404;149.120;2024-03-02T02:58:00;27.20;38.00
46123;DHT22;31856;-35.404;149.120;2024-03-02T03:00:29;27.20;36.80
46123;DHT22;31856;-35.404;149.120;2024-03-02T03:02:59;27.30;35.90
46123;DHT22;31856;-35.404;149.120;2024-03-02T03:05:29;27.50;32.80
46123;DHT22;31856;-35.404;149.120;2024-03-02T03:07:59;27.70;33.10
46123;DHT22;31856;-35.404;149.120;2024-03-02T03:10:29;27.90;29.80
46123;DHT22;31856;-35.404;149.120;2024-03-02T03:12:59;28.00;29.80
46123;DHT22;31856;-35.404;149.120;2024-03-02T03:15:29;28.30;28.60
46123;DHT22;31856;-35.404;149.120;2024-03-02T03:17:58;28.30;27.60
46123;DHT22;31856;-35.404;149.120;2024-03-02T03:20:28;28.30;27.20
46123;DHT22;31856;-35.404;149.120;2024-03-02T03:22:58;28.10;26.10
46123;DHT22;31856;-35.404;149.120;2024-03-02T03:25:27;28.00;25.90
46123;DHT22;31856;-35.404;149.120;2024-03-02T05:13:49;30.70;24.60
46123;DHT22;31856;-35.404;149.120;2024-03-02T05:16:20;30.80;23.70
46123;DHT22;31856;-35.404;149.120;2024-03-02T05:18:51;30.80;24.50
46123;DHT22;31856;-35.404;149.120;2024-03-02T05:21:20;30.80;24.50
46123;DHT22;31856;-35.404;149.120;2024-03-02T05:23:51;30.90;24.80
46123;DHT22;31856;-35.404;149.120;2024-03-02T05:26:20;30.80;24.50
46123;DHT22;31856;-35.404;149.120;2024-03-02T05:28:49;30.80;25.20
46123;DHT22;31856;-35.404;149.120;2024-03-02T05:31:20;30.90;25.00
46123;DHT22;31856;-35.404;149.120;2024-03-02T05:33:49;30.80;25.40
46123;DHT22;31856;-35.404;149.120;2024-03-02T05:36:24;30.80;25.60
46123;DHT22;31856;-35.404;149.120;2024-03-02T05:38:54;30.90;25.80
46123;DHT22;31856;-35.404;149.120;2024-03-02T05:41:23;30.90;26.20
46123;DHT22;31856;-35.404;149.120;2024-03-02T05:43:52;30.90;25.90
46123;DHT22;31856;-35.404;149.120;2024-03-02T05:46:22;30.90;26.10
46123;DHT22;31856;-35.404;149.120;2024-03-02T05:48:51;30.90;25.80
46123;DHT22;31856;-35.404;149.120;2024-03-02T05:51:21;30.90;26.00
46123;DHT22;31856;-35.404;149.120;2024-03-02T05:53:51;30.90;26.10
46123;DHT22;31856;-35.404;149.120;2024-03-02T05:56:20;30.90;26.50
46123;DHT22;31856;-35.404;149.120;2024-03-02T05:58:51;30.90;26.60
46123;DHT22;31856;-35.404;149.120;2024-03-02T06:01:47;30.90;26.70
46123;DHT22;31856;-35.404;149.120;2024-03-02T06:04:18;30.80;27.20
46123;DHT22;31856;-35.404;149.120;2024-03-02T06:06:47;30.80;27.60
46123;DHT22;31856;-35.404;149.120;2024-03-02T06:09:18;30.90;27.70
46123;DHT22;31856;-35.404;149.120;2024-03-02T09:03:24;22.20;58.30
46123;DHT22;31856;-35.404;149.120;2024-03-02T09:05:54;22.10;58.60
46123;DHT22;31856;-35.404;149.120;2024-03-02T09:08:24;22.00;58.50
46123;DHT22;31856;-35.404;149.120;2024-03-02T09:10:54;22.00;58.80
46123;DHT22;31856;-35.404;149.120;2024-03-02T09:13:25;21.90;59.10
46123;DHT22;31856;-35.404;149.120;2024-03-02T09:15:54;21.80;59.10
46123;DHT22;31856;-35.404;149.120;2024-03-02T09:18:24;21.70;59.60
46123;DHT22;31856;-35.404;149.120;2024-03-02T09:20:54;21.60;60.10
46123;DHT22;31856;-35.404;149.120;2024-03-02T09:23:24;21.60;60.00
46123;DHT22;31856;-35.404;149.120;2024-03-02T09:25:55;21.50;60.70
46123;DHT22;31856;-35.404;149.120;2024-03-02T09:28:25;21.40;60.70
46123;DHT22;31856;-35.404;149.120;2024-03-02T09:30:54;21.40;60.60
46123;DHT22;31856;-35.404;149.120;2024-03-02T09:33:27;21.30;60.70
46123;DHT22;31856;-35.404;149.120;2024-03-02T09:35:57;21.30;60.60
46123;DHT22;31856;-35.404;149.120;2024-03-02T09:38:26;21.30;61.10
46123;DHT22;31856;-35.404;149.120;2024-03-02T09:40:56;21.30;61.00
46123;DHT22;31856;-35.404;149.120;2024-03-02T09:43:28;21.30;61.10
46123;DHT22;31856;-35.404;149.120;2024-03-02T09:45:58;21.20;61.60
46123;DHT22;31856;-35.404;149.120;2024-03-02T09:48:28;21.20;61.40
46123;DHT22;31856;-35.404;149.120;2024-03-02T09:50:57;21.10;61.60
46123;DHT22;31856;-35.404;149.120;2024-03-02T09:53:29;21.10;61.60
46123;DHT22;31856;-35.404;149.120;2024-03-02T09:56:01;21.00;62.10
46123;DHT22;31856;-35.404;149.120;2024-03-02T09:58:31;20.80;62.70
46123;DHT22;31856;-35.404;149.120;2024-03-02T10:01:01;20.80;62.30
46123;DHT22;31856;-35.404;149.120;2024-03-02T10:03:31;20.80;62.50
46123;DHT22;31856;-35.404;149.120;2024-03-02T10:08:51;20.70;62.60
46123;DHT22;31856;-35.404;149.120;2024-03-02T10:14:05;20.60;62.70
46123;DHT22;31856;-35.404;149.120;2024-03-02T10:16:41;20.60;63.10
46123;DHT22;31856;-35.404;149.120;2024-03-02T10:21:53;20.50;63.30
46123;DHT22;31856;-35.404;149.120;2024-03-02T10:24:26;20.40;63.40
46123;DHT22;31856;-35.404;149.120;2024-03-02T10:26:56;20.40;63.50
46123;DHT22;31856;-35.404;149.120;2024-03-02T10:29:25;20.30;64.10
46123;DHT22;31856;-35.404;149.120;2024-03-02T10:31:57;20.30;63.90
46123;DHT22;31856;-35.404;149.120;2024-03-02T10:34:28;20.30;64.20
46123;DHT22;31856;-35.404;149.120;2024-03-02T10:36:58;20.20;64.40
46123;DHT22;31856;-35.404;149.120;2024-03-02T10:39:29;20.20;64.40
46123;DHT22;31856;-35.404;149.120;2024-03-02T10:42:02;20.20;64.10
46123;DHT22;31856;-35.404;149.120;2024-03-02T10:44:32;20.10;64.50
46123;DHT22;31856;-35.404;149.120;2024-03-02T10:47:03;20.00;64.50
46123;DHT22;31856;-35.404;149.120;2024-03-02T10:49:33;20.10;64.60
46123;DHT22;31856;-35.404;149.120;2024-03-02T10:52:04;20.00;64.70
46123;DHT22;31856;-35.404;149.120;2024-03-02T13:34:47;19.20;68.20
46123;DHT22;31856;-35.404;149.120;2024-03-02T13:37:17;19.20;68.20
46123;DHT22;31856;-35.404;149.120;2024-03-02T13:39:48;19.30;67.90
46123;DHT22;31856;-35.404;149.120;2024-03-02T13:42:18;19.30;68.30
46123;DHT22;31856;-35.404;149.120;2024-03-02T13:44:48;19.30;68.00
46123;DHT22;31856;-35.404;149.120;2024-03-02T13:47:19;19.30;68.00
46123;DHT22;31856;-35.404;149.120;2024-03-02T13:49:50;19.30;68.20
46123;DHT22;31856;-35.404;149.120;2024-03-02T13:52:19;19.30;68.20
46123;DHT22;31856;-35.404;149.120;2024-03-02T13:54:49;19.30;68.00
46123;DHT22;31856;-35.404;149.120;2024-03-02T13:57:22;19.30;68.20
46123;DHT22;31856;-35.404;149.120;2024-03-02T13:59:53;19.30;68.30
46123;DHT22;31856;-35.404;149.120;2024-03-02T14:02:24;19.20;68.10
46123;DHT22;31856;-35.404;149.120;2024-03-02T14:04:55;19.30;68.10
46123;DHT22;31856;-35.404;149.120;2024-03-02T14:07:25;19.20;68.20
46123;DHT22;31856;-35.404;149.120;2024-03-02T14:09:54;19.30;68.20
46123;DHT22;31856;-35.404;149.120;2024-03-02T14:12:24;19.30;68.50
46123;DHT22;31856;-35.404;149.120;2024-03-02T14:14:53;19.20;68.40
46123;DHT22;31856;-35.404;149.120;2024-03-02T14:17:26;19.20;68.80
46123;DHT22;31856;-35.404;149.120;2024-03-02T14:19:56;19.20;68.90
46123;DHT22;31856;-35.404;149.120;2024-03-02T14:22:27;19.10;68.80
46123;DHT22;31856;-35.404;149.120;2024-03-02T14:24:57;19.20;68.80
46123;DHT22;31856;-35.404;149.120;2024-03-02T14:27:27;19.10;69.10
46123;DHT22;31856;-35.404;149.120;2024-03-02T14:30:16;19.20;68.90
46123;DHT22;31856;-35.404;149.120;2024-03-02T14:32:46;19.20;68.60
46123;DHT22;31856;-35.404;149.120;2024-03-02T18:59:46;17.30;75.80
46123;DHT22;31856;-35.404;149.120;2024-03-02T19:02:16;17.30;76.00
46123;DHT22;31856;-35.404;149.120;2024-03-02T19:04:46;17.30;75.80
46123;DHT22;31856;-35.404;149.120;2024-03-02T19:07:16;17.30;75.50
46123;DHT22;31856;-35.404;149.120;2024-03-02T19:09:45;17.30;75.60
46123;DHT22;31856;-35.404;149.120;2024-03-02T19:12:15;17.40;75.70
46123;DHT22;31856;-35.404;149.120;2024-03-02T19:14:45;17.40;75.70
46123;DHT22;31856;-35.404;149.120;2024-03-02T19:17:15;17.40;75.40
46123;DHT22;31856;-35.404;149.120;2024-03-02T19:19:45;17.40;75.90
46123;DHT22;31856;-35.404;149.120;2024-03-02T19:22:15;17.30;76.20
46123;DHT22;31856;-35.404;149.120;2024-03-02T19:24:45;17.40;76.20
46123;DHT22;31856;-35.404;149.120;2024-03-02T19:27:15;17.40;76.60
46123;DHT22;31856;-35.404;149.120;2024-03-02T19:29:45;17.30;76.10
46123;DHT22;31856;-35.404;149.120;2024-03-02T19:32:15;17.40;76.30
46123;DHT22;31856;-35.404;149.120;2024-03-02T19:34:48;17.40;76.70
46123;DHT22;31856;-35.404;149.120;2024-03-02T19:37:18;17.30;76.90
46123;DHT22;31856;-35.404;149.120;2024-03-02T19:39:47;17.30;77.10
46123;DHT22;31856;-35.404;149.120;2024-03-02T19:42:17;17.30;77.00
46123;DHT22;31856;-35.404;149.120;2024-03-02T19:44:47;17.40;76.90
46123;DHT22;31856;-35.404;149.120;2024-03-02T19:47:16;17.40;76.70
46123;DHT22;31856;-35.404;149.120;2024-03-02T19:49:49;17.40;76.40
46123;DHT22;31856;-35.404;149.120;2024-03-02T19:52:19;17.50;76.50
46123;DHT22;31856;-35.404;149.120;2024-03-02T19:54:53;17.50;76.40
46123;DHT22;31856;-35.404;149.120;2024-03-02T20:32:26;17.70;76.20
46123;DHT22;31856;-35.404;149.120;2024-03-02T20:34:55;17.70;76.50
46123;DHT22;31856;-35.404;149.120;2024-03-02T20:37:25;17.70;76.10
46123;DHT22;31856;-35.404;149.120;2024-03-02T20:39:55;17.80;75.80
46123;DHT22;31856;-35.404;149.120;2024-03-02T20:42:28;17.80;75.60
46123;DHT22;31856;-35.404;149.120;2024-03-02T20:44:59;17.80;75.50
46123;DHT22;31856;-35.404;149.120;2024-03-02T20:47:29;17.80;75.30
46123;DHT22;31856;-35.404;149.120;2024-03-02T20:49:59;17.80;75.60
46123;DHT22;31856;-35.404;149.120;2024-03-02T20:52:28;17.80;75.30
46123;DHT22;31856;-35.404;149.120;2024-03-02T20:54:59;17.80;75.40
46123;DHT22;31856;-35.404;149.120;2024-03-02T20:57:29;17.90;75.30
46123;DHT22;31856;-35.404;149.120;2024-03-02T20:59:59;18.00;75.40
46123;DHT22;31856;-35.404;149.120;2024-03-02T21:02:28;18.00;74.70
46123;DHT22;31856;-35.404;149.120;2024-03-02T21:04:59;18.00;74.50
46123;DHT22;31856;-35.404;149.120;2024-03-02T21:07:29;18.00;73.70
46123;DHT22;31856;-35.404;149.120;2024-03-02T21:10:03;18.10;73.80
46123;DHT22;31856;-35.404;149.120;2024-03-02T21:12:34;18.10;73.60
46123;DHT22;31856;-35.404;149.120;2024-03-02T21:15:04;18.20;73.20
46123;DHT22;31856;-35.404;149.120;2024-03-02T21:17:34;18.30;72.70
46123;DHT22;31856;-35.404;149.120;2024-03-02T21:20:03;18.50;71.80
46123;DHT22;31856;-35.404;149.120;2024-03-02T21:22:37;18.60;71.20
46123;DHT22;31856;-35.404;149.120;2024-03-02T21:25:07;19.00;69.60
46123;DHT22;31856;-35.404;149.120;2024-03-02T21:27:41;19.40;68.70
46123;DHT22;31856;-35.404;149.120;2024-03-02T21:30:10;19.80;67.40
46123;DHT22;31856;-35.404;149.120;2024-03-02T21:53:00;18.50;70.40
46123;DHT22;31856;-35.404;149.120;2024-03-02T21:55:32;18.70;69.80
46123;DHT22;31856;-35.404;149.120;2024-03-02T21:58:01;18.80;69.60
46123;DHT22;31856;-35.404;149.120;2024-03-02T22:00:33;18.90;69.00
46123;DHT22;31856;-35.404;149.120;2024-03-02T22:03:04;19.00;68.70
46123;DHT22;31856;-35.404;149.120;2024-03-02T22:05:35;19.10;69.30
46123;DHT22;31856;-35.404;149.120;2024-03-02T22:08:05;19.20;68.40
46123;DHT22;31856;-35.404;149.120;2024-03-02T22:10:35;19.30;68.20
46123;DHT22;31856;-35.404;149.120;2024-03-02T22:13:04;19.40;68.40
46123;DHT22;31856;-35.404;149.120;2024-03-02T22:15:34;19.50;67.70
46123;DHT22;31856;-35.404;149.120;2024-03-02T22:18:04;19.60;67.30
46123;DHT22;31856;-35.404;149.120;2024-03-02T22:20:34;19.60;67.10
46123;DHT22;31856;-35.404;149.120;2024-03-02T22:23:04;19.60;67.00
46123;DHT22;31856;-35.404;149.120;2024-03-02T22:25:33;19.70;67.30
46123;DHT22;31856;-35.404;149.120;2024-03-02T22:28:03;19.80;67.10
46123;DHT22;31856;-35.404;149.120;2024-03-02T22:30:34;19.80;66.00
46123;DHT22;31856;-35.404;149.120;2024-03-02T22:33:04;19.90;65.30
46123;DHT22;31856;-35.404;149.120;2024-03-02T22:35:33;20.00;65.70
46123;DHT22;31856;-35.404;149.120;2024-03-02T22:38:03;20.20;66.10
46123;DHT22;31856;-35.404;149.120;2024-03-02T22:40:33;20.30;65.50
46123;DHT22;31856;-35.404;149.120;2024-03-02T22:43:02;20.30;63.90
46123;DHT22;31856;-35.404;149.120;2024-03-02T22:45:32;20.30;64.70
46123;DHT22;31856;-35.404;149.120;2024-03-02T22:48:02;20.30;64.90
46123;DHT22;31856;-35.404;149.120;2024-03-02T22:50:31;20.40;64.00
